LZPPLZZI

Guest
Details From LZPP - PIESTANY
To LZZI - Zilina
Flight Number -
Tags generated
Created
Modified
Stats Distance 48 nm / 90 km
Max Altitude 900 ft / 274 m
Waypoints 3
Social Downloads 17
Likes 0
Share

Download

Looking for another format? Having issues loading an existing format? Contact us
Advertisement - Login to hide

Notes

Basic altitude profile: - Ascent Rate: 2500ft/min - Ascent Speed: 250kts - Cruise Altitude: 10000ft - Cruise Speed: 420kts - Descent Rate: 1500ft/min - Descent Speed: 250kts Options: - Use NATs: yes - Use PACOTS: yes - Use low airways: yes - Use high airways: no

Route

LZPP ZLA LZZI

ID Type Via Altitude (ft/m) Position (lat/lon) Dist (leg/tot) Name
O LZPP APT - 0 / 0 48.62525 / 17.82844 - / 0 nm PIESTANY
ZLA NDB - 900 / 274 49.20289 / 18.51045 43 / 43 nm ZILINA NDB
O LZZI APT - 0 / 0 49.23363 / 18.61343 4 / 48 nm Zilina

Altitude Profile

Advertisement - Login to hide

LZPP

Details ICAO LZPP (PZY)
Name PIESTANY
Region Slovakia
Timezone Europe/Bratislava (UTC+2.0)
Stats Elevation 544 ft / 166 m (AMSL)
Location 48.625100° 17.828600°
Runways 1
Magnetic Variation 5.115° E

METAR

LZPP 270630Z 21004KT 140V300 CAVOK 18/10 Q1019

Decode

TAF

Not found

Departure Runways

ID Width Length Bearing (true/mag) Surface Threshold Overrun Markings Lighting
01 98 ft / 30 m 6,568 ft / 2,002 m 13.58° / 8.47° ASPHALT 0 ft / 0 m 0 ft / 0 m UK-PREC-APP EDGE THRESHOLD ALSF-I
19 98 ft / 30 m 6,568 ft / 2,002 m 193.59° / 188.47° ASPHALT 0 ft / 0 m 0 ft / 0 m UK-PREC-APP EDGE THRESHOLD SSALR

LZZI

Details ICAO LZZI (ILZ)
Name Zilina
Region Slovakia
Timezone Europe/Bratislava (UTC+2.0)
Stats Elevation 1,020 ft / 311 m (AMSL)
Location 49.233400° 18.613600°
Runways 1
Magnetic Variation 5.364° E

METAR

LZZI 270630Z 26003KT 220V300 9999 FEW022 14/10 Q1019

Decode

TAF

Not found

Destination Runways

ID Width Length Bearing (true/mag) Surface Threshold Overrun Markings Lighting
06 98 ft / 30 m 3,777 ft / 1,151 m 64.60° / 59.24° CONCRETE 0 ft / 0 m 0 ft / 0 m UK-APP EDGE THRESHOLD ALSF-I TDZ REIL-OMNI
24 98 ft / 30 m 3,777 ft / 1,151 m 244.62° / 239.25° CONCRETE 0 ft / 0 m 0 ft / 0 m VISUAL EDGE THRESHOLD TDZ

Approach Navaids

Runway Type Ident Frequency Range Bearing (true/mag) Slope Elevation
06 LOC-ILS ZNA 108.15 MHz 18 nm / 33 km 64.61° / 59.25 ° - 1,020 ft / 311 m (AMSL)
06 GS ZNA 108.15 MHz 10 nm / 19 km 64.61° / 59.25 ° 3.50° 1,020 ft / 311 m (AMSL)
06 IM IM - - 63.68° / 58.32 ° - 1,020 ft / 311 m (AMSL)

Popular Alternatives